createdAt,value
2019-04-28T00:01:17.724Z,100974.83
2019-04-28T00:03:47.121Z,100977.43
2019-04-28T00:06:16.011Z,100976.99
2019-04-28T00:08:45.316Z,100975.27
2019-04-28T00:11:14.096Z,100984.38
2019-04-28T00:13:42.994Z,100983.97
2019-04-28T00:16:11.729Z,100986.54
2019-04-28T00:18:41.578Z,100983.94
2019-04-28T00:21:20.872Z,100982.67
2019-04-28T00:24:07.951Z,100977.03
2019-04-28T00:26:57.423Z,100982.23
2019-04-28T00:29:37.714Z,100988.31
2019-04-28T00:31:56.841Z,100985.72
2019-04-28T00:34:26.147Z,100988.34
2019-04-28T00:37:06.267Z,100991.34
2019-04-28T00:39:35.288Z,100990.48
2019-04-28T00:42:04.594Z,100995.71
2019-04-28T00:44:33.690Z,100987.45
2019-04-28T00:47:02.349Z,100990.91
2019-04-28T00:49:46.432Z,100995.25
2019-04-28T00:52:16.099Z,100999.63
2019-04-28T00:54:45.520Z,101007.41
2019-04-28T00:57:14.838Z,101005.23
2019-04-28T00:59:54.171Z,101001.33
2019-04-28T01:02:22.530Z,100998.27
2019-04-28T01:04:51.559Z,100994.79
2019-04-28T01:07:21.314Z,101001.30
2019-04-28T01:09:51.664Z,100998.72
2019-04-28T01:12:21.444Z,100998.30
2019-04-28T01:14:52.266Z,100995.69
2019-04-28T01:17:26.226Z,100999.16
2019-04-28T01:19:56.771Z,100998.26
2019-04-28T01:22:26.177Z,101000.46
2019-04-28T01:24:55.072Z,100998.69
2019-04-28T01:27:50.577Z,100994.36
2019-04-28T01:30:54.412Z,100995.22
2019-04-28T01:33:35.055Z,101000.43
2019-04-28T01:36:04.161Z,100995.22
2019-04-28T01:38:33.207Z,100999.56
2019-04-28T01:41:01.840Z,101004.33
2019-04-28T01:43:31.250Z,101008.67
2019-04-28T01:46:00.336Z,101013.02
2019-04-28T01:48:29.860Z,101017.79
2019-04-28T01:50:59.850Z,101014.75
2019-04-28T01:53:30.857Z,101021.70
2019-04-28T01:55:59.798Z,101023.86
2019-04-28T01:58:29.675Z,101031.23
2019-04-28T02:00:59.569Z,101026.03
2019-04-28T02:03:30.603Z,101026.03
2019-04-28T02:06:00.199Z,101023.38
2019-04-28T02:08:30.198Z,101023.37
2019-04-28T02:11:00.103Z,101037.27
2019-04-28T02:13:29.869Z,101031.20
2019-04-28T02:16:00.039Z,101028.58
2019-04-28T02:18:30.043Z,101032.92
2019-04-28T02:21:06.291Z,101030.75
2019-04-28T02:23:36.341Z,101035.53
2019-04-28T02:26:05.228Z,101032.50
2019-04-28T02:28:33.922Z,101029.45
2019-04-28T02:31:03.214Z,101038.52
2019-04-28T02:33:31.833Z,101041.13
2019-04-28T02:36:01.597Z,101035.92
2019-04-28T02:38:31.382Z,101041.13
2019-04-28T02:41:01.237Z,101041.11
2019-04-28T02:43:30.875Z,101043.23
2019-04-28T02:46:00.668Z,101036.29
2019-04-28T02:48:30.966Z,101043.59
2019-04-28T02:51:05.788Z,101040.13
2019-04-28T02:53:37.574Z,101050.02
2019-04-28T02:56:06.443Z,101046.11
2019-04-28T02:58:35.356Z,101044.38
2019-04-28T03:01:12.846Z,101047.42
2019-04-28T03:03:35.494Z,101042.64
2019-04-28T03:06:04.279Z,101053.91
2019-04-28T03:08:33.177Z,101055.13
2019-04-28T03:11:02.222Z,101064.66
2019-04-28T03:13:31.323Z,101061.61
2019-04-28T03:16:01.745Z,101062.48
2019-04-28T03:18:31.585Z,101057.76
2019-04-28T03:21:01.669Z,101067.28
2019-04-28T03:23:31.550Z,101073.83
2019-04-28T03:26:14.740Z,101067.79
2019-04-28T03:28:50.697Z,101069.58
2019-04-28T03:32:07.207Z,101072.56
2019-04-28T03:34:04.002Z,101080.81
2019-04-28T03:36:33.467Z,101080.86
2019-04-28T03:39:04.241Z,101077.90
2019-04-28T03:41:33.282Z,101082.59
2019-04-28T03:44:02.018Z,101081.24
2019-04-28T03:46:32.422Z,101083.89
2019-04-28T03:49:01.295Z,101085.22
2019-04-28T03:51:30.993Z,101083.84
2019-04-28T03:54:02.928Z,101090.41
2019-04-28T03:56:31.155Z,101086.96
2019-04-28T03:59:00.480Z,101092.17
2019-04-28T04:01:30.559Z,101091.72
2019-04-28T04:04:03.081Z,101097.42
2019-04-28T04:06:31.122Z,101092.64
2019-04-28T04:09:00.467Z,101087.45
2019-04-28T04:11:43.543Z,101090.44
2019-04-28T04:14:43.844Z,101095.69
2019-04-28T04:17:17.412Z,101109.14
2019-04-28T04:19:46.487Z,101106.11
2019-04-28T04:22:15.477Z,101106.91
2019-04-28T04:24:44.672Z,101109.08
2019-04-28T04:27:13.317Z,101100.89
2019-04-28T04:29:43.668Z,101106.53
2019-04-28T04:32:22.851Z,101102.04
2019-04-28T04:34:43.897Z,101108.13
2019-04-28T04:37:12.873Z,101098.22
2019-04-28T04:39:41.703Z,101112.98
2019-04-28T04:42:10.701Z,101116.86
2019-04-28T04:44:41.483Z,101113.89
2019-04-28T04:47:10.895Z,101111.23
2019-04-28T04:49:40.548Z,101112.96
2019-04-28T04:52:10.471Z,101114.28
2019-04-28T04:54:40.098Z,101115.58
2019-04-28T04:57:11.021Z,101114.27
2019-04-28T04:59:40.328Z,101108.60
2019-04-28T05:02:33.117Z,101115.12
2019-04-28T05:05:27.857Z,101111.24
2019-04-28T05:07:56.867Z,101108.63
2019-04-28T05:10:25.847Z,101115.56
2019-04-28T05:12:55.149Z,101117.29
2019-04-28T05:15:24.042Z,101125.09
2019-04-28T05:17:52.927Z,101126.83
2019-04-28T05:20:21.942Z,101140.34
2019-04-28T05:22:57.753Z,101141.25
2019-04-28T05:25:34.657Z,101141.66
2019-04-28T05:28:03.547Z,101144.27
2019-04-28T05:30:34.913Z,101141.22
2019-04-28T05:33:03.175Z,101141.21
2019-04-28T05:35:35.551Z,101157.43
2019-04-28T05:38:03.312Z,101156.59
2019-04-28T05:40:32.205Z,101161.84
2019-04-28T05:43:01.376Z,101163.61
2019-04-28T05:45:32.163Z,101157.15
2019-04-28T05:48:01.765Z,101161.49
2019-04-28T05:50:35.850Z,101167.94
2019-04-28T05:53:32.489Z,101167.48
2019-04-28T05:56:15.030Z,101167.92
2019-04-28T05:58:53.176Z,101162.73
2019-04-28T06:01:40.618Z,101170.11
2019-04-28T06:04:11.104Z,101177.55
2019-04-28T06:06:41.906Z,101181.84
2019-04-28T06:09:16.331Z,101184.06
2019-04-28T06:11:45.329Z,101187.03
2019-04-28T06:14:13.950Z,101190.44
2019-04-28T06:16:42.903Z,101183.05
2019-04-28T06:19:11.815Z,101195.64
2019-04-28T06:21:41.093Z,101194.75
2019-04-28T06:24:09.751Z,101197.46
2019-04-28T06:26:38.776Z,101204.40
2019-04-28T06:29:07.664Z,101209.19
2019-04-28T06:31:36.672Z,101212.22
2019-04-28T06:34:05.363Z,101208.36
2019-04-28T06:36:33.985Z,101214.44
2019-04-28T06:39:04.258Z,101219.30
2019-04-28T06:41:33.144Z,101216.67
2019-04-28T06:44:02.449Z,101216.19
2019-04-28T06:46:31.338Z,101219.28
2019-04-28T06:49:00.227Z,101208.38
2019-04-28T06:51:29.119Z,101218.85
2019-04-28T06:53:58.031Z,101216.70
2019-04-28T06:56:27.310Z,101219.78
2019-04-28T06:58:59.339Z,101216.75
2019-04-28T07:01:26.939Z,101217.61
2019-04-28T07:03:56.137Z,101221.97
2019-04-28T07:06:25.022Z,101217.12
2019-04-28T07:08:54.318Z,101224.52
2019-04-28T07:11:23.034Z,101216.31
2019-04-28T07:13:51.798Z,101215.07
2019-04-28T07:16:20.618Z,101214.59
2019-04-28T07:18:49.585Z,101224.59
2019-04-28T07:21:32.795Z,101215.07
2019-04-28T07:24:01.932Z,101214.70
2019-04-28T07:26:30.576Z,101228.16
2019-04-28T07:28:59.793Z,101226.86
2019-04-28T07:31:28.437Z,101233.70
2019-04-28T07:33:57.483Z,101240.77
2019-04-28T07:36:26.796Z,101241.19
2019-04-28T07:38:55.772Z,101240.28
2019-04-28T07:41:24.666Z,101243.36
2019-04-28T07:43:53.763Z,101246.84
2019-04-28T07:46:22.955Z,101259.95
2019-04-28T07:48:52.520Z,101261.31
2019-04-28T07:51:23.113Z,101264.79
2019-04-28T07:53:56.287Z,101272.05
2019-04-28T07:56:25.729Z,101277.77
2019-04-28T07:58:54.361Z,101285.55
2019-04-28T08:01:23.471Z,101282.13
2019-04-28T08:03:52.083Z,101294.62
2019-04-28T08:06:20.712Z,101295.02
2019-04-28T08:08:49.945Z,101299.95
2019-04-28T08:11:18.830Z,101301.67
2019-04-28T08:13:47.463Z,101311.77
2019-04-28T08:16:16.374Z,101314.04
2019-04-28T08:18:45.302Z,101319.66
2019-04-28T08:21:14.195Z,101327.09
2019-04-28T08:23:47.406Z,101334.82
2019-04-28T08:26:13.717Z,101331.79
2019-04-28T08:28:42.714Z,101330.86
2019-04-28T08:31:13.371Z,101331.83
2019-04-28T08:34:01.375Z,101329.17
2019-04-28T08:36:19.826Z,101320.09
2019-04-28T08:38:48.721Z,101328.63
2019-04-28T08:41:17.733Z,101332.22
2019-04-28T08:43:46.439Z,101335.69
2019-04-28T08:46:15.392Z,101342.96
2019-04-28T08:48:44.055Z,101349.10
2019-04-28T08:51:13.000Z,101348.23
2019-04-28T08:53:41.862Z,101351.27
2019-04-28T08:56:10.854Z,101350.86
2019-04-28T08:58:39.748Z,101353.40
2019-04-28T09:01:08.740Z,101356.81
2019-04-28T09:03:38.042Z,101359.52
2019-04-28T09:06:06.747Z,101360.40
2019-04-28T09:08:35.682Z,101358.34
2019-04-28T09:11:04.723Z,101357.05
2019-04-28T09:13:33.716Z,101370.09
2019-04-28T09:16:02.914Z,101376.11
2019-04-28T09:18:31.639Z,101377.78
2019-04-28T09:21:00.905Z,101382.22
2019-04-28T09:23:30.199Z,101385.73
2019-04-28T09:25:59.136Z,101389.17
2019-04-28T09:28:28.188Z,101392.27
2019-04-28T09:30:56.901Z,101393.19
2019-04-28T09:33:25.867Z,101388.35
2019-04-28T09:35:55.064Z,101388.80
2019-04-28T09:38:23.686Z,101384.11
2019-04-28T09:40:52.642Z,101395.41
2019-04-28T09:43:29.229Z,101393.31
2019-04-28T09:46:03.428Z,101398.13
2019-04-28T09:48:32.317Z,101399.84
2019-04-28T09:51:00.953Z,101399.87
2019-04-28T09:53:29.897Z,101402.48
2019-04-28T09:55:58.511Z,101399.41
2019-04-28T09:58:27.787Z,101402.05
2019-04-28T10:00:56.773Z,101402.95
2019-04-28T10:03:25.739Z,101400.84
2019-04-28T10:05:54.662Z,101402.56
2019-04-28T10:08:23.302Z,101411.66
2019-04-28T10:10:52.220Z,101407.73
2019-04-28T10:13:21.131Z,101413.03
2019-04-28T10:15:50.121Z,101419.08
2019-04-28T10:18:19.039Z,101413.02
2019-04-28T10:20:48.007Z,101418.23
2019-04-28T10:23:17.314Z,101419.12
2019-04-28T10:25:46.330Z,101417.36
2019-04-28T10:28:15.873Z,101420.88
2019-04-28T10:30:44.905Z,101422.61
2019-04-28T10:33:13.567Z,101419.56
2019-04-28T10:35:42.584Z,101420.86
2019-04-28T10:38:11.498Z,101422.60
2019-04-28T10:41:05.267Z,101428.28
2019-04-28T10:43:34.556Z,101428.69
2019-04-28T10:46:04.284Z,101429.12
2019-04-28T10:48:33.277Z,101434.34
2019-04-28T10:51:01.987Z,101431.21
2019-04-28T10:53:30.937Z,101435.95
2019-04-28T10:55:59.663Z,101437.56
2019-04-28T10:58:28.310Z,101442.08
2019-04-28T11:00:57.507Z,101445.52
2019-04-28T11:03:26.396Z,101450.19
2019-04-28T11:05:55.603Z,101451.94
2019-04-28T11:08:37.301Z,101450.09
2019-04-28T11:11:22.869Z,101461.63
2019-04-28T11:13:51.871Z,101458.05
2019-04-28T11:16:24.443Z,101451.06
2019-04-28T11:18:53.747Z,101465.20
2019-04-28T11:21:22.738Z,101469.64
2019-04-28T11:23:52.346Z,101469.61
2019-04-28T11:26:21.074Z,101468.28
2019-04-28T11:28:50.032Z,101472.20
2019-04-28T11:31:18.646Z,101473.57
2019-04-28T11:33:55.635Z,101479.70
2019-04-28T11:36:24.326Z,101474.47
2019-04-28T11:38:53.594Z,101479.27
2019-04-28T11:41:22.640Z,101483.20
2019-04-28T11:43:51.565Z,101485.78
2019-04-28T11:46:22.110Z,101489.30
2019-04-28T11:48:51.092Z,101489.72
2019-04-28T11:51:20.286Z,101492.33
2019-04-28T11:53:49.179Z,101497.55
2019-04-28T11:56:18.382Z,101494.08
2019-04-28T11:58:46.990Z,101498.42
2019-04-28T12:01:16.390Z,101497.52
2019-04-28T12:03:45.666Z,101503.61
2019-04-28T12:06:14.971Z,101502.31
2019-04-28T12:08:44.164Z,101506.12
2019-04-28T12:11:23.059Z,101519.03
2019-04-28T12:14:23.115Z,101522.08
2019-04-28T12:17:18.303Z,101527.40
2019-04-28T12:19:52.978Z,101530.51
2019-04-28T12:22:21.947Z,101540.08
2019-04-28T12:24:50.839Z,101541.77
2019-04-28T12:27:19.832Z,101534.85
2019-04-28T12:29:49.021Z,101543.18
2019-04-28T12:32:17.920Z,101542.81
2019-04-28T12:34:46.897Z,101541.08
2019-04-28T12:37:16.311Z,101546.63
2019-04-28T12:39:45.302Z,101547.09
2019-04-28T12:42:14.734Z,101548.31
2019-04-28T12:44:43.449Z,101545.25
2019-04-28T12:47:12.359Z,101553.95
2019-04-28T12:49:53.237Z,101565.27
2019-04-28T12:52:23.944Z,101563.91
2019-04-28T12:54:53.427Z,101562.97
2019-04-28T12:57:22.309Z,101570.12
2019-04-28T12:59:56.420Z,101570.65
2019-04-28T13:02:40.151Z,101580.13
2019-04-28T13:05:12.835Z,101574.91
2019-04-28T13:07:43.190Z,101563.91
2019-04-28T13:10:12.153Z,101570.84
2019-04-28T13:12:40.973Z,101567.41
2019-04-28T13:15:10.046Z,101571.67
2019-04-28T13:17:39.052Z,101577.86
2019-04-28T13:20:08.237Z,101576.73
2019-04-28T13:22:37.673Z,101571.83
2019-04-28T13:25:07.203Z,101586.99
2019-04-28T13:27:35.932Z,101581.95
2019-04-28T13:30:05.451Z,101586.41
2019-04-28T13:32:35.767Z,101588.70
2019-04-28T13:35:04.630Z,101589.06
2019-04-28T13:37:36.136Z,101594.97
2019-04-28T13:40:11.339Z,101597.52
2019-04-28T13:42:40.278Z,101588.53
2019-04-28T13:45:14.558Z,101588.54
2019-04-28T13:47:43.579Z,101594.21
2019-04-28T13:50:17.250Z,101594.64
2019-04-28T13:52:46.237Z,101597.42
2019-04-28T13:55:33.678Z,101593.27
2019-04-28T13:58:03.391Z,101592.46
2019-04-28T14:00:41.665Z,101600.86
2019-04-28T14:03:22.642Z,101597.27
2019-04-28T14:05:56.384Z,101607.80
2019-04-28T14:08:25.254Z,101607.36
2019-04-28T14:10:54.210Z,101606.09
2019-04-28T14:13:22.792Z,101611.33
2019-04-28T14:15:51.526Z,101611.62
2019-04-28T14:18:20.737Z,101617.50
2019-04-28T14:20:49.423Z,101613.20
2019-04-28T14:23:18.035Z,101618.44
2019-04-28T14:25:46.674Z,101626.19
2019-04-28T14:28:16.203Z,101625.66
2019-04-28T14:30:45.173Z,101630.58
2019-04-28T14:33:16.635Z,101629.50
2019-04-28T14:35:45.119Z,101629.23
2019-04-28T14:38:13.895Z,101629.44
2019-04-28T14:40:43.103Z,101634.64
2019-04-28T14:43:12.086Z,101636.93
2019-04-28T14:45:40.717Z,101641.60
2019-04-28T14:48:09.721Z,101636.58
2019-04-28T14:50:38.939Z,101641.39
2019-04-28T14:53:08.823Z,101649.63
2019-04-28T14:55:37.780Z,101654.21
2019-04-28T14:58:06.774Z,101645.98
2019-04-28T15:00:40.610Z,101652.05
2019-04-28T15:03:11.746Z,101654.58
2019-04-28T15:05:53.496Z,101648.03
2019-04-28T15:08:44.406Z,101662.00
2019-04-28T15:11:32.474Z,101654.75
2019-04-28T15:14:01.470Z,101655.22
2019-04-28T15:16:30.334Z,101663.04
2019-04-28T15:18:59.545Z,101658.99
2019-04-28T15:21:28.268Z,101658.38
2019-04-28T15:23:56.928Z,101664.02
2019-04-28T15:26:26.244Z,101663.02
2019-04-28T15:28:54.888Z,101661.39
2019-04-28T15:31:24.105Z,101664.45
2019-04-28T15:33:53.142Z,101673.01
2019-04-28T15:36:22.399Z,101659.68
2019-04-28T15:38:51.697Z,101675.91
2019-04-28T15:41:22.099Z,101673.36
2019-04-28T15:43:51.263Z,101673.78
2019-04-28T15:46:20.221Z,101682.50
2019-04-28T15:48:48.827Z,101681.00
2019-04-28T15:51:17.805Z,101673.59
2019-04-28T15:53:49.251Z,101686.17
2019-04-28T15:56:29.680Z,101681.27
2019-04-28T15:58:58.609Z,101677.16
2019-04-28T16:01:27.802Z,101683.45
2019-04-28T16:03:56.453Z,101682.47
2019-04-28T16:06:25.376Z,101686.65
2019-04-28T16:08:54.263Z,101678.50
2019-04-28T16:11:22.992Z,101688.84
2019-04-28T16:13:51.927Z,101690.55
2019-04-28T16:16:20.528Z,101692.11
2019-04-28T16:18:49.527Z,101696.09
2019-04-28T16:21:18.246Z,101691.08
2019-04-28T16:23:47.239Z,101686.67
2019-04-28T16:26:16.202Z,101682.25
2019-04-28T16:28:45.196Z,101683.09
2019-04-28T16:31:14.748Z,101696.98
2019-04-28T16:33:43.717Z,101689.60
2019-04-28T16:36:12.999Z,101699.11
2019-04-28T16:38:41.960Z,101700.82
2019-04-28T16:41:10.611Z,101705.20
2019-04-28T16:43:41.006Z,101702.74
2019-04-28T16:46:09.994Z,101707.83
2019-04-28T16:48:39.288Z,101706.99
2019-04-28T16:51:07.916Z,101705.55
2019-04-28T16:53:37.177Z,101705.27
2019-04-28T16:56:20.715Z,101707.95
2019-04-28T16:59:13.981Z,101704.85
2019-04-28T17:01:58.494Z,101711.75
2019-04-28T17:04:27.220Z,101697.13
2019-04-28T17:06:55.822Z,101701.49
2019-04-28T17:09:24.898Z,101699.77
2019-04-28T17:11:53.896Z,101703.19
2019-04-28T17:14:22.606Z,101709.63
2019-04-28T17:16:51.339Z,101706.59
2019-04-28T17:19:19.966Z,101702.67
2019-04-28T17:21:49.259Z,101709.13
2019-04-28T17:24:18.256Z,101707.41
2019-04-28T17:26:47.297Z,101709.29
2019-04-28T17:29:16.013Z,101711.36
2019-04-28T17:31:44.922Z,101707.13
2019-04-28T17:34:13.813Z,101713.23
2019-04-28T17:36:42.684Z,101718.58
2019-04-28T17:39:16.556Z,101722.72
2019-04-28T17:41:45.613Z,101722.02
2019-04-28T17:44:17.117Z,101727.14
2019-04-28T17:46:45.641Z,101729.39
2019-04-28T17:49:14.635Z,101729.29
2019-04-28T17:51:43.937Z,101727.11
2019-04-28T17:54:12.825Z,101733.17
2019-04-28T17:56:41.546Z,101733.25
2019-04-28T17:59:11.123Z,101734.50
2019-04-28T18:02:01.997Z,101734.52
2019-04-28T18:04:50.273Z,101736.16
2019-04-28T18:07:24.285Z,101746.47
2019-04-28T18:09:52.994Z,101762.11
2019-04-28T18:12:21.790Z,101761.20
2019-04-28T18:14:52.337Z,101760.30
2019-04-28T18:17:39.101Z,101769.91
2019-04-28T18:20:08.606Z,101767.47
2019-04-28T18:22:37.598Z,101767.36
2019-04-28T18:25:07.112Z,101767.52
2019-04-28T18:27:36.494Z,101765.72
2019-04-28T18:30:06.019Z,101773.48
2019-04-28T18:33:09.425Z,101767.83
2019-04-28T18:35:42.610Z,101767.47
2019-04-28T18:38:19.711Z,101770.75
2019-04-28T18:41:07.640Z,101777.28
2019-04-28T18:44:00.896Z,101783.00
2019-04-28T18:46:30.787Z,101779.92
2019-04-28T18:48:59.384Z,101786.00
2019-04-28T18:51:28.707Z,101789.37
2019-04-28T18:53:57.993Z,101794.42
2019-04-28T18:56:26.719Z,101797.09
2019-04-28T18:58:55.983Z,101790.78
2019-04-28T19:01:49.097Z,101790.83
2019-04-28T19:04:18.972Z,101791.88
2019-04-28T19:06:47.975Z,101797.34
2019-04-28T19:09:27.047Z,101802.30
2019-04-28T19:12:00.995Z,101790.60
2019-04-28T19:14:37.519Z,101799.83
2019-04-28T19:17:15.975Z,101799.69
2019-04-28T19:19:44.905Z,101805.57
2019-04-28T19:22:13.757Z,101813.03
2019-04-28T19:24:42.463Z,101806.93
2019-04-28T19:27:11.753Z,101803.75
2019-04-28T19:29:40.639Z,101813.69
2019-04-28T19:32:09.536Z,101818.84
2019-04-28T19:34:39.174Z,101820.59
2019-04-28T19:37:08.250Z,101829.80
2019-04-28T19:39:36.862Z,101826.59
2019-04-28T19:42:06.139Z,101836.50
2019-04-28T19:44:35.611Z,101836.56
2019-04-28T19:47:04.718Z,101836.92
2019-04-28T19:49:33.714Z,101837.34
2019-04-28T19:52:02.377Z,101839.17
2019-04-28T19:54:34.778Z,101840.58
2019-04-28T19:57:25.452Z,101840.11
2019-04-28T20:00:12.288Z,101845.81
2019-04-28T20:02:41.100Z,101849.98
2019-04-28T20:05:10.170Z,101845.62
2019-04-28T20:07:40.952Z,101846.91
2019-04-28T20:10:09.489Z,101852.92
2019-04-28T20:12:38.688Z,101845.20
2019-04-28T20:15:08.195Z,101841.25
2019-04-28T20:17:36.825Z,101851.06
2019-04-28T20:20:05.950Z,101845.68
2019-04-28T20:22:34.831Z,101847.34
2019-04-28T20:25:03.829Z,101850.91
2019-04-28T20:27:33.105Z,101850.37
2019-04-28T20:30:01.692Z,101853.28
2019-04-28T20:32:32.857Z,101852.75
2019-04-28T20:35:01.792Z,101848.54
2019-04-28T20:37:38.722Z,101850.74
2019-04-28T20:40:12.368Z,101860.20
2019-04-28T20:43:03.233Z,101863.84
2019-04-28T20:45:32.474Z,101859.16
2019-04-28T20:48:01.105Z,101863.20
2019-04-28T20:50:30.055Z,101856.25
2019-04-28T20:52:58.965Z,101862.78
2019-04-28T20:55:27.988Z,101863.59
2019-04-28T20:57:56.629Z,101868.71
2019-04-28T21:00:25.618Z,101868.89
2019-04-28T21:02:54.238Z,101867.73
2019-04-28T21:05:23.217Z,101869.82
2019-04-28T21:07:51.869Z,101874.20
2019-04-28T21:10:20.769Z,101876.17
2019-04-28T21:12:49.679Z,101873.34
2019-04-28T21:15:18.975Z,101871.53
2019-04-28T21:17:47.599Z,101872.02
2019-04-28T21:20:16.530Z,101873.31
2019-04-28T21:22:45.149Z,101876.22
2019-04-28T21:25:14.223Z,101879.19
2019-04-28T21:27:43.253Z,101874.20
2019-04-28T21:30:12.825Z,101881.54
2019-04-28T21:32:41.816Z,101875.61
2019-04-28T21:35:10.811Z,101881.12
2019-04-28T21:37:39.451Z,101877.01
2019-04-28T21:40:09.517Z,101881.52
2019-04-28T21:43:12.511Z,101885.44
2019-04-28T21:45:57.477Z,101888.16
2019-04-28T21:48:43.752Z,101881.00
2019-04-28T21:51:12.671Z,101883.30
2019-04-28T21:53:41.657Z,101879.45
2019-04-28T21:56:10.344Z,101879.00
2019-04-28T21:58:38.923Z,101873.03
2019-04-28T22:01:09.257Z,101863.82
2019-04-28T22:03:38.259Z,101860.80
2019-04-28T22:06:06.944Z,101866.91
2019-04-28T22:08:38.898Z,101865.75
2019-04-28T22:11:07.896Z,101876.17
2019-04-28T22:13:36.885Z,101874.73
2019-04-28T22:16:05.969Z,101881.41
2019-04-28T22:18:34.872Z,101884.37
2019-04-28T22:21:03.498Z,101868.34
2019-04-28T22:23:38.920Z,101869.88
2019-04-28T22:26:09.414Z,101875.50
2019-04-28T22:28:38.015Z,101877.14
2019-04-28T22:31:07.008Z,101873.33
2019-04-28T22:33:35.899Z,101874.45
2019-04-28T22:36:04.905Z,101874.36
2019-04-28T22:38:33.523Z,101872.00
2019-04-28T22:41:02.780Z,101865.86
2019-04-28T22:43:31.672Z,101866.98
2019-04-28T22:46:00.598Z,101861.36
2019-04-28T22:48:29.453Z,101860.83
2019-04-28T22:50:58.449Z,101859.47
2019-04-28T22:53:33.492Z,101853.80
2019-04-28T22:56:27.975Z,101850.29
2019-04-28T22:59:04.494Z,101847.66
2019-04-28T23:01:36.866Z,101849.47
2019-04-28T23:04:28.650Z,101848.14
2019-04-28T23:06:57.841Z,101847.23
2019-04-28T23:09:26.741Z,101835.19
2019-04-28T23:11:55.631Z,101838.05
2019-04-28T23:14:24.829Z,101834.23
2019-04-28T23:16:53.740Z,101829.77
2019-04-28T23:19:25.122Z,101822.36
2019-04-28T23:22:06.106Z,101824.48
2019-04-28T23:24:35.338Z,101821.85
2019-04-28T23:27:04.452Z,101826.60
2019-04-28T23:29:33.351Z,101823.61
2019-04-28T23:32:02.331Z,101822.84
2019-04-28T23:34:31.522Z,101828.07
2019-04-28T23:37:00.517Z,101827.50
2019-04-28T23:39:29.511Z,101837.03
2019-04-28T23:42:08.809Z,101831.01
2019-04-28T23:44:38.049Z,101834.86
2019-04-28T23:47:07.714Z,101833.58
2019-04-28T23:49:36.949Z,101832.31
2019-04-28T23:52:31.136Z,101835.30
2019-04-28T23:55:02.177Z,101829.83
2019-04-28T23:57:31.478Z,101831.83
